Time;durP1;ratioP1;P1;durP2;ratioP2;P2;SDS_P1;SDS_P2;PMS_P1;PMS_P2;Temp;Humidity;BMP_temperature;BMP_pressure;BME280_temperature;BME280_humidity;BME280_pressure;Samples;Min_cycle;Max_cycle;Signal;HPM_P1;HPM_P2
2021/09/19 00:01:18;;;;;;;8.27;7.57;;;;;;;15.82;71.23;95399.63;4994108;28;20282;-85
2021/09/19 00:03:44;;;;;;;7.65;6.95;;;;;;;15.88;71.00;95394.38;4994053;28;20621;-85
2021/09/19 00:06:11;;;;;;;8.57;7.65;;;;;;;15.74;71.04;95400.69;4993558;28;20231;-89
2021/09/19 00:08:37;;;;;;;8.77;7.97;;;;;;;15.70;71.21;95403.94;4993885;28;20203;-85
2021/09/19 00:11:05;;;;;;;8.55;7.75;;;;;;;15.70;71.18;95407.31;4993765;28;20302;-85
2021/09/19 00:13:32;;;;;;;8.70;7.90;;;;;;;15.67;70.90;95399.94;4993226;28;20199;-86
2021/09/19 00:15:58;;;;;;;8.30;7.55;;;;;;;15.63;71.15;95397.97;4993051;28;20235;-85
2021/09/19 00:18:25;;;;;;;8.30;7.57;;;;;;;15.62;71.12;95399.00;4993634;28;20258;-85
2021/09/19 00:20:51;;;;;;;8.27;7.53;;;;;;;15.66;71.01;95397.56;4993593;28;20226;-87
2021/09/19 00:23:17;;;;;;;8.10;7.35;;;;;;;15.62;71.25;95397.19;4993441;28;20211;-86
2021/09/19 00:25:44;;;;;;;8.18;7.45;;;;;;;15.59;70.93;95400.22;4992774;28;20278;-85
2021/09/19 00:28:12;;;;;;;8.23;7.53;;;;;;;15.50;71.30;95397.06;4993015;28;20207;-85
2021/09/19 00:30:38;;;;;;;7.88;7.18;;;;;;;15.53;71.16;95385.47;4993106;28;20741;-85
2021/09/19 00:33:05;;;;;;;8.77;7.95;;;;;;;15.35;71.63;95388.81;4993159;28;20694;-85
2021/09/19 00:35:32;;;;;;;8.45;7.65;;;;;;;15.27;71.68;95380.47;4993020;28;20215;-86
2021/09/19 00:37:58;;;;;;;8.60;7.80;;;;;;;15.29;71.94;95392.22;4993053;28;20210;-85
2021/09/19 00:40:25;;;;;;;7.72;6.93;;;;;;;15.34;71.85;95381.22;4993214;28;20203;-86
2021/09/19 00:42:51;;;;;;;8.65;7.95;;;;;;;15.34;71.28;95381.22;4992704;28;20618;-88
2021/09/19 00:45:22;;;;;;;8.82;8.00;;;;;;;15.27;71.61;95378.66;4993087;28;20242;-87
2021/09/19 00:47:48;;;;;;;8.83;8.03;;;;;;;15.26;71.64;95379.66;4993361;28;20294;-85
2021/09/19 00:50:17;;;;;;;8.55;7.85;;;;;;;15.25;71.33;95379.88;4993278;28;20203;-86
2021/09/19 00:52:45;;;;;;;8.45;7.75;;;;;;;15.18;71.14;95378.16;4992926;28;20215;-85
2021/09/19 00:55:15;;;;;;;8.60;7.90;;;;;;;14.97;72.54;95369.91;4992302;28;20306;-85
2021/09/19 00:57:43;;;;;;;8.57;7.82;;;;;;;14.83;73.14;95372.56;4992940;28;20640;-85
2021/09/19 01:00:12;;;;;;;9.50;8.00;;;;;;;14.80;73.52;95372.19;4992736;28;20215;-85
2021/09/19 01:02:41;;;;;;;9.30;7.50;;;;;;;14.86;73.60;95379.13;4992544;28;20207;-85
2021/09/19 01:05:09;;;;;;;8.73;7.90;;;;;;;14.92;72.51;95365.34;4992275;28;20235;-86
2021/09/19 01:07:36;;;;;;;9.17;8.37;;;;;;;14.80;73.85;95369.59;4992421;28;20207;-84
2021/09/19 01:10:03;;;;;;;9.98;8.98;;;;;;;14.77;73.47;95360.44;4992451;28;20212;-87
2021/09/19 01:12:30;;;;;;;9.17;8.37;;;;;;;14.71;74.30;95365.66;4992211;28;20286;-86
2021/09/19 01:15:00;;;;;;;8.67;7.97;;;;;;;14.76;73.75;95364.03;4980746;28;20197;-85
2021/09/19 01:17:26;;;;;;;9.30;8.50;;;;;;;14.74;74.43;95362.66;4972791;28;20211;-86
2021/09/19 01:19:57;;;;;;;9.23;8.40;;;;;;;14.79;73.85;95366.22;4981288;28;20211;-85
2021/09/19 01:22:30;;;;;;;8.55;7.85;;;;;;;14.85;73.84;95359.38;4983862;28;20289;-85
2021/09/19 01:24:59;;;;;;;9.50;8.60;;;;;;;14.75;74.08;95361.66;4988710;28;20635;-86
2021/09/19 01:27:25;;;;;;;10.27;8.63;;;;;;;14.67;74.55;95359.28;4991366;28;20258;-85
2021/09/19 01:29:51;;;;;;;9.23;8.37;;;;;;;14.72;74.26;95357.66;4992588;28;20694;-86
2021/09/19 01:32:21;;;;;;;9.53;8.70;;;;;;;14.76;74.58;95356.25;4992494;28;20208;-85
2021/09/19 01:34:48;;;;;;;9.00;8.20;;;;;;;14.90;73.26;95358.75;4991970;28;20210;-86
2021/09/19 01:37:15;;;;;;;9.40;8.53;;;;;;;14.95;73.21;95349.38;4991966;28;20219;-86
2021/09/19 01:39:42;;;;;;;10.17;9.27;;;;;;;14.81;73.71;95343.47;4991976;28;20262;-86
2021/09/19 01:42:10;;;;;;;9.03;8.23;;;;;;;14.79;74.04;95344.69;4991411;28;20306;-85
2021/09/19 01:44:37;;;;;;;9.50;8.60;;;;;;;14.83;73.42;95346.63;4991650;28;20310;-87
2021/09/19 01:47:04;;;;;;;9.20;8.45;;;;;;;14.85;73.50;95344.63;4991774;28;20227;-86
2021/09/19 01:49:30;;;;;;;10.17;9.20;;;;;;;14.86;73.19;95345.41;4991602;28;20625;-85
2021/09/19 01:51:57;;;;;;;9.27;8.40;;;;;;;14.81;73.65;95335.69;4991528;28;20250;-85
2021/09/19 01:54:23;;;;;;;9.00;8.30;;;;;;;14.74;73.77;95337.53;4991186;28;20211;-86
2021/09/19 01:56:49;;;;;;;9.83;8.93;;;;;;;14.66;74.52;95336.97;4991830;28;20278;-85
2021/09/19 01:59:18;;;;;;;10.10;9.10;;;;;;;14.59;74.37;95339.59;4991869;28;20690;-85
2021/09/19 02:01:44;;;;;;;9.10;8.30;;;;;;;14.69;74.23;95331.38;4991781;28;20605;-85
2021/09/19 02:04:11;;;;;;;9.43;8.53;;;;;;;14.66;74.68;95335.16;4990952;28;20758;-85
2021/09/19 02:06:37;;;;;;;10.30;9.40;;;;;;;14.63;74.02;95330.41;4990748;28;20232;-85
2021/09/19 02:09:04;;;;;;;9.93;9.13;;;;;;;14.52;74.02;95316.31;4991429;28;20203;-88
2021/09/19 02:11:30;;;;;;;9.87;8.93;;;;;;;14.48;74.22;95317.72;4991609;28;20629;-85
2021/09/19 02:13:58;;;;;;;9.70;8.80;;;;;;;14.50;74.27;95312.34;4991501;28;20202;-87
2021/09/19 02:16:26;;;;;;;10.63;8.97;;;;;;;14.62;74.01;95312.50;4991225;28;20259;-85
2021/09/19 02:18:52;;;;;;;9.17;8.27;;;;;;;14.69;73.87;95308.84;4991071;28;20667;-85
2021/09/19 02:21:21;;;;;;;9.77;8.80;;;;;;;14.68;73.82;95312.44;4991296;28;20218;-85
2021/09/19 02:23:47;;;;;;;10.97;8.57;;;;;;;14.70;73.61;95312.22;4991281;28;20218;-86
2021/09/19 02:26:14;;;;;;;9.47;8.67;;;;;;;14.67;73.85;95304.88;4990543;28;20271;-85
2021/09/19 02:28:40;;;;;;;9.43;8.63;;;;;;;14.66;73.84;95308.47;4990766;28;20199;-85
2021/09/19 02:31:06;;;;;;;10.07;9.07;;;;;;;14.72;73.73;95305.03;4990890;28;20245;-86
2021/09/19 02:33:34;;;;;;;10.50;9.60;;;;;;;14.75;73.23;95302.84;4990813;28;20254;-85
2021/09/19 02:36:01;;;;;;;10.90;9.90;;;;;;;14.69;73.70;95297.69;4990592;28;20711;-85
2021/09/19 02:38:29;;;;;;;11.50;10.50;;;;;;;14.70;73.33;95304.47;4990958;28;20211;-86
2021/09/19 02:40:55;;;;;;;11.23;10.03;;;;;;;14.65;73.46;95293.91;4990331;28;20210;-85
2021/09/19 02:43:23;;;;;;;11.13;10.13;;;;;;;14.60;73.85;95297.16;4990933;28;20595;-85
2021/09/19 02:45:50;;;;;;;11.63;10.63;;;;;;;14.61;73.79;95292.75;4990559;28;20224;-85
2021/09/19 02:48:16;;;;;;;11.73;10.63;;;;;;;14.65;73.74;95291.31;4990840;28;20233;-87
2021/09/19 02:50:44;;;;;;;11.93;10.83;;;;;;;14.59;73.84;95290.38;4991064;28;20207;-85
2021/09/19 02:53:11;;;;;;;11.10;10.00;;;;;;;14.60;73.91;95286.78;4991122;28;20204;-87
2021/09/19 02:55:37;;;;;;;11.17;10.13;;;;;;;14.65;74.14;95286.13;4990621;28;20277;-85
2021/09/19 02:58:03;;;;;;;11.43;10.43;;;;;;;14.72;73.59;95277.34;4990986;28;20262;-85
2021/09/19 03:00:31;;;;;;;12.87;11.73;;;;;;;14.70;73.40;95270.75;4990637;28;20628;-85
2021/09/19 03:02:59;;;;;;;12.90;11.57;;;;;;;14.62;73.94;95271.81;4990471;28;20204;-85
2021/09/19 03:05:25;;;;;;;13.33;12.13;;;;;;;14.59;74.03;95274.03;4990327;28;20231;-85
2021/09/19 03:07:55;;;;;;;14.07;12.70;;;;;;;14.43;75.06;95267.56;4990674;28;20218;-85
2021/09/19 03:10:22;;;;;;;13.90;12.50;;;;;;;14.36;75.30;95264.97;4990695;28;20211;-86
2021/09/19 03:12:48;;;;;;;13.87;12.50;;;;;;;14.29;76.56;95258.22;4990320;28;20249;-85
2021/09/19 03:15:15;;;;;;;16.27;14.77;;;;;;;14.39;76.67;95261.97;4990025;28;20281;-85
2021/09/19 03:17:41;;;;;;;15.27;13.70;;;;;;;14.44;77.06;95256.97;4990223;28;20277;-85
2021/09/19 03:20:10;;;;;;;15.07;13.63;;;;;;;14.52;76.16;95248.16;4990475;28;20204;-85
2021/09/19 03:22:37;;;;;;;14.97;13.47;;;;;;;14.58;75.78;95251.72;4990478;28;20508;-85
2021/09/19 03:25:07;;;;;;;15.40;13.90;;;;;;;14.57;76.18;95245.75;4989893;28;20279;-85
2021/09/19 03:27:34;;;;;;;15.03;13.73;;;;;;;14.47;76.66;95251.38;4990265;28;20199;-86
2021/09/19 03:30:00;;;;;;;16.10;14.47;;;;;;;14.48;76.20;95241.81;4990334;28;20258;-85
2021/09/19 03:32:27;;;;;;;14.60;13.30;;;;;;;14.50;76.22;95239.81;4990658;28;20203;-85
2021/09/19 03:34:53;;;;;;;14.80;13.50;;;;;;;14.43;77.24;95233.88;4990325;28;20203;-85
2021/09/19 03:37:20;;;;;;;15.20;13.80;;;;;;;14.46;77.89;95223.88;4990613;28;20663;-87
2021/09/19 03:39:46;;;;;;;15.67;14.17;;;;;;;14.56;76.90;95222.63;4990456;28;20203;-84
2021/09/19 03:42:14;;;;;;;16.10;14.67;;;;;;;14.27;78.08;95221.38;4989638;28;20808;-85
2021/09/19 03:44:40;;;;;;;15.93;14.37;;;;;;;14.16;78.54;95228.00;4989733;28;20211;-85
2021/09/19 03:47:07;;;;;;;15.70;14.30;;;;;;;14.23;78.42;95233.16;4990134;28;20266;-85
2021/09/19 03:49:33;;;;;;;15.43;13.97;;;;;;;14.25;78.30;95236.31;4991176;28;20555;-85
2021/09/19 03:52:00;;;;;;;15.30;13.90;;;;;;;14.21;78.57;95227.41;4993901;28;20254;-86
2021/09/19 03:54:26;;;;;;;14.90;13.50;;;;;;;14.28;77.98;95228.13;4993551;28;20204;-85
2021/09/19 03:56:52;;;;;;;14.80;13.40;;;;;;;14.37;77.68;95234.69;4993677;28;20216;-86
2021/09/19 03:59:20;;;;;;;14.87;13.47;;;;;;;14.46;76.96;95225.66;4993994;28;20210;-85
2021/09/19 04:01:47;;;;;;;15.30;13.90;;;;;;;14.40;77.30;95227.31;4993752;28;20734;-87
2021/09/19 04:04:13;;;;;;;15.87;14.37;;;;;;;14.33;78.23;95220.56;4993440;28;20204;-85
2021/09/19 04:06:39;;;;;;;15.63;14.13;;;;;;;14.27;79.04;95223.97;4993433;28;20282;-84
2021/09/19 04:09:06;;;;;;;14.80;13.20;;;;;;;14.33;79.02;95226.53;4993478;28;20226;-86
2021/09/19 04:11:34;;;;;;;14.53;13.23;;;;;;;14.36;78.58;95227.91;4993385;28;20598;-86
2021/09/19 04:14:00;;;;;;;14.93;13.63;;;;;;;14.38;78.18;95220.72;4993414;28;20215;-85
2021/09/19 04:16:28;;;;;;;15.23;13.83;;;;;;;14.42;77.69;95229.69;4993655;28;20220;-85
2021/09/19 04:18:57;;;;;;;14.73;13.43;;;;;;;14.44;77.71;95232.84;4993782;28;20199;-86
2021/09/19 04:21:23;;;;;;;15.87;14.47;;;;;;;14.49;77.13;95236.41;4993681;28;20266;-85
2021/09/19 04:23:49;;;;;;;14.93;13.37;;;;;;;14.55;76.84;95234.78;4993407;28;20695;-86
2021/09/19 04:29:42;;;;;;;14.10;12.70;;;;;;;14.56;74.64;95238.97;5050669;23;20230;-87
2021/09/19 04:32:24;;;;;;;12.90;11.73;;;;;;;14.46;74.87;95239.41;4920951;29;20810;-87
2021/09/19 04:35:05;;;;;;;13.17;11.97;;;;;;;14.47;74.74;95246.19;4922605;29;20242;-88
2021/09/19 04:37:56;;;;;;;12.63;11.33;;;;;;;14.48;74.76;95246.97;4936450;28;20242;-88
2021/09/19 04:40:22;;;;;;;11.67;10.67;;;;;;;14.43;74.41;95234.66;5018339;28;20678;-88
2021/09/19 04:43:16;;;;;;;12.43;11.23;;;;;;;14.39;74.29;95237.84;5019715;28;20233;-87
2021/09/19 04:46:15;;;;;;;12.10;10.90;;;;;;;14.35;73.51;95240.06;5021820;28;20222;-88
2021/09/19 04:49:15;;;;;;;12.00;10.90;;;;;;;14.30;73.14;95249.44;5002654;28;20206;-89
2021/09/19 04:51:47;;;;;;;12.60;11.30;;;;;;;14.15;73.96;95244.56;5018688;28;20314;-88
2021/09/19 04:54:42;;;;;;;12.83;11.53;;;;;;;14.16;73.67;95243.56;5020472;28;20195;-88
2021/09/19 04:57:19;;;;;;;12.07;10.93;;;;;;;14.05;74.30;95250.16;5042059;23;20267;-87
2021/09/19 04:59:54;;;;;;;12.03;10.93;;;;;;;14.10;74.04;95247.75;5056786;28;20284;-87
2021/09/19 05:02:25;;;;;;;12.80;11.60;;;;;;;14.09;73.84;95245.38;5058090;28;20208;-88
2021/09/19 05:05:20;;;;;;;12.73;11.53;;;;;;;13.95;74.19;95249.00;5056329;28;20219;-87
2021/09/19 05:08:11;;;;;;;14.17;12.83;;;;;;;13.95;74.57;95257.56;5044086;28;20222;-88
2021/09/19 05:10:54;;;;;;;13.03;11.73;;;;;;;13.89;74.88;95248.03;5010173;28;20685;-87
2021/09/19 05:13:47;;;;;;;13.83;12.53;;;;;;;13.92;75.41;95244.25;5036383;28;20202;-87
2021/09/19 05:16:31;;;;;;;14.07;12.77;;;;;;;13.96;74.99;95248.81;5030898;28;20198;-87
2021/09/19 05:19:05;;;;;;;13.33;12.13;;;;;;;13.97;75.44;95249.59;5037558;28;20798;-88
2021/09/19 05:24:30;;;;;;;14.00;12.50;;;;;;;14.05;75.36;95262.31;5023594;28;20205;-88
2021/09/19 05:33:22;;;;;;;15.87;14.23;;;;;;;14.30;75.23;95262.41;5110499;28;20230;-88
2021/09/19 05:35:57;;;;;;;15.43;13.93;;;;;;;14.37;75.15;95266.56;5134584;28;20205;-87
2021/09/19 05:41:54;;;;;;;17.00;15.30;;;;;;;14.28;76.42;95266.97;5107245;28;20220;-88
2021/09/19 05:44:32;;;;;;;16.90;15.10;;;;;;;14.32;76.98;95268.16;5090571;28;20227;-87
2021/09/19 05:53:31;;;;;;;18.57;16.77;;;;;;;14.19;80.30;95271.63;5088440;28;20192;-87
2021/09/19 05:56:23;;;;;;;18.80;17.00;;;;;;;13.97;83.60;95265.13;5074542;28;20181;-87
2021/09/19 05:58:57;;;;;;;17.83;16.03;;;;;;;13.97;83.11;95265.13;5063149;28;20290;-87
2021/09/19 06:01:24;;;;;;;17.43;15.80;;;;;;;14.09;82.56;95261.69;5069089;28;20251;-87
2021/09/19 06:03:51;;;;;;;18.20;16.40;;;;;;;14.11;83.27;95258.91;5068904;28;20201;-88
2021/09/19 06:06:25;;;;;;;17.90;16.20;;;;;;;14.21;83.07;95261.06;5071906;28;20225;-87
2021/09/19 06:08:54;;;;;;;17.60;15.90;;;;;;;14.26;83.58;95250.84;5071343;28;20592;-87
2021/09/19 06:11:21;;;;;;;17.23;15.60;;;;;;;14.42;82.46;95253.81;5068881;28;20209;-87
2021/09/19 06:13:48;;;;;;;16.67;15.17;;;;;;;14.66;81.23;95244.47;5088662;28;20224;-87
2021/09/19 06:16:14;;;;;;;16.83;15.30;;;;;;;14.80;80.41;95240.00;5086636;28;20223;-87
2021/09/19 06:18:41;;;;;;;15.97;14.47;;;;;;;14.97;79.75;95243.66;5086785;28;20223;-88
2021/09/19 06:21:16;;;;;;;15.57;14.07;;;;;;;15.09;78.54;95236.78;5087307;28;20195;-87
2021/09/19 06:27:06;;;;;;;15.57;14.17;;;;;;;14.78;80.10;95247.19;5055862;28;20713;-87
2021/09/19 06:29:42;;;;;;;14.27;12.97;;;;;;;14.85;79.42;95243.53;5087702;28;20318;-87
2021/09/19 06:32:09;;;;;;;13.50;12.20;;;;;;;15.13;78.04;95234.56;5087070;28;20232;-87
2021/09/19 06:34:36;;;;;;;13.47;12.17;;;;;;;15.30;77.51;95239.97;5084371;28;20212;-87
2021/09/19 06:37:04;;;;;;;12.47;11.37;;;;;;;15.37;76.28;95245.91;5065872;28;20225;-87
2021/09/19 06:39:31;;;;;;;11.93;10.93;;;;;;;15.39;75.62;95243.91;5063129;28;20691;-87
2021/09/19 06:41:59;;;;;;;11.27;10.25;;;;;;;15.51;74.80;95247.34;5052519;28;20221;-87
2021/09/19 06:44:26;;;;;;;10.23;9.40;;;;;;;15.67;74.53;95240.84;5052754;28;20581;-87
2021/09/19 06:46:53;;;;;;;10.53;9.63;;;;;;;15.62;74.51;95232.91;5052547;28;20319;-87
2021/09/19 06:49:20;;;;;;;11.13;10.23;;;;;;;15.54;75.32;95242.53;5052405;28;20719;-87
2021/09/19 06:51:57;;;;;;;10.63;9.83;;;;;;;15.73;74.50;95232.19;5053929;28;20680;-87
2021/09/19 06:54:56;;;;;;;10.50;9.60;;;;;;;15.82;73.61;95231.66;5055176;28;20201;-87
2021/09/19 06:57:33;;;;;;;11.45;10.45;;;;;;;15.84;72.64;95234.84;5049717;28;20224;-87
2021/09/19 07:02:56;;;;;;;10.90;10.00;;;;;;;16.25;72.77;95235.94;5055448;28;20204;-88
2021/09/19 07:09:22;;;;;;;;;;;;;;;;;;;;;
2021/09/19 07:11:54;;;;;;;10.75;9.75;;;;;;;17.01;68.96;95237.06;4955969;28;20210;-87
2021/09/19 07:14:22;;;;;;;10.85;9.95;;;;;;;17.17;68.23;95242.41;5027712;28;20210;-87
2021/09/19 07:16:52;;;;;;;10.90;9.88;;;;;;;17.16;68.13;95238.22;5052331;28;20225;-87
2021/09/19 07:19:46;;;;;;;10.68;9.77;;;;;;;17.14;68.23;95242.03;5055451;28;20202;-87
2021/09/19 07:22:12;;;;;;;10.13;9.23;;;;;;;17.10;67.61;95236.53;5041402;28;20293;-87
2021/09/19 07:24:42;;;;;;;8.70;7.97;;;;;;;17.37;66.48;95239.47;5050843;28;20185;-88
2021/09/19 07:27:11;;;;;;;15.23;13.77;;;;;;;17.65;65.99;95231.00;5053381;28;20282;-88
2021/09/19 07:29:39;;;;;;;12.75;11.65;;;;;;;17.75;64.24;95228.59;5052344;28;20229;-88
2021/09/19 07:32:07;;;;;;;13.95;12.70;;;;;;;18.05;64.39;95225.81;5052859;28;20201;-87
2021/09/19 07:34:41;;;;;;;9.85;9.05;;;;;;;17.97;63.86;95223.53;5052854;28;20292;-87
2021/09/19 07:37:09;;;;;;;8.95;8.25;;;;;;;17.98;63.40;95225.13;5053991;28;20306;-88
2021/09/19 07:39:36;;;;;;;9.10;8.40;;;;;;;17.95;64.11;95230.78;5053086;28;20214;-88
2021/09/19 07:42:03;;;;;;;8.50;7.80;;;;;;;18.06;64.02;95229.19;5052955;28;20598;-88
2021/09/19 07:44:30;;;;;;;8.40;7.70;;;;;;;18.30;63.41;95234.06;5053236;28;20209;-86
2021/09/19 07:46:58;;;;;;;8.40;7.70;;;;;;;18.48;62.80;95238.31;5052394;28;20229;-88
2021/09/19 07:49:25;;;;;;;7.85;7.25;;;;;;;18.65;62.52;95243.59;5051897;28;20827;-87
2021/09/19 07:51:52;;;;;;;8.02;7.32;;;;;;;18.83;61.61;95246.00;5051523;28;20229;-88
2021/09/19 07:54:20;;;;;;;8.63;7.93;;;;;;;18.70;60.26;95245.47;5052304;28;20193;-87
2021/09/19 07:56:47;;;;;;;20.13;18.13;;;;;;;18.45;60.34;95246.63;5052195;28;20316;-88
2021/09/19 07:59:13;;;;;;;10.85;9.85;;;;;;;18.59;61.00;95252.34;5052867;28;20198;-87
2021/09/19 08:01:40;;;;;;;8.63;7.93;;;;;;;18.35;61.04;95243.81;5052430;28;20196;-87
2021/09/19 08:04:09;;;;;;;8.13;7.43;;;;;;;18.48;60.84;95243.50;5051440;28;20202;-86
2021/09/19 08:06:36;;;;;;;8.85;8.15;;;;;;;18.15;60.42;95239.00;5051326;28;20236;-87
2021/09/19 08:09:03;;;;;;;8.23;7.55;;;;;;;18.27;61.18;95244.19;5051274;28;20253;-86
2021/09/19 08:11:30;;;;;;;8.40;7.70;;;;;;;18.63;61.54;95240.44;5051261;28;20198;-85
2021/09/19 08:14:05;;;;;;;9.63;8.82;;;;;;;18.77;60.24;95253.97;5051167;28;20580;-86
2021/09/19 08:16:35;;;;;;;9.00;8.30;;;;;;;18.79;59.56;95257.91;5031348;28;20221;-86
2021/09/19 08:19:01;;;;;;;9.23;8.43;;;;;;;18.81;60.45;95255.09;5031294;28;20198;-87
2021/09/19 08:21:36;;;;;;;9.70;8.80;;;;;;;18.67;60.81;95262.38;5031472;28;20198;-87
2021/09/19 08:24:03;;;;;;;9.43;8.70;;;;;;;18.76;59.77;95255.78;5031245;28;20197;-86
2021/09/19 08:26:29;;;;;;;10.40;9.50;;;;;;;18.43;60.37;95259.09;5031384;28;20225;-87
2021/09/19 08:28:56;;;;;;;10.07;9.18;;;;;;;18.49;60.76;95255.53;5030967;28;20746;-85
2021/09/19 08:31:23;;;;;;;10.63;9.73;;;;;;;18.37;62.03;95251.41;5031150;28;20285;-86
2021/09/19 08:33:50;;;;;;;11.75;10.80;;;;;;;18.36;61.46;95257.63;5031281;28;20601;-86
2021/09/19 08:36:18;;;;;;;11.23;10.13;;;;;;;18.60;61.27;95259.16;5030952;28;20214;-86
2021/09/19 08:38:46;;;;;;;10.30;9.40;;;;;;;18.98;60.90;95253.28;5031831;28;20654;-86
2021/09/19 08:41:16;;;;;;;9.30;8.40;;;;;;;19.33;59.40;95258.25;5031382;28;20229;-87
2021/09/19 08:43:43;;;;;;;11.00;10.10;;;;;;;18.98;60.10;95251.47;5031752;28;20684;-86
2021/09/19 08:46:11;;;;;;;14.05;12.80;;;;;;;19.20;59.97;95253.34;5032534;28;20296;-86
2021/09/19 08:48:39;;;;;;;11.45;10.48;;;;;;;19.32;60.40;95247.00;5031335;28;20198;-89
2021/09/19 08:51:06;;;;;;;11.00;10.07;;;;;;;19.40;59.84;95256.28;5032346;28;20212;-87
2021/09/19 08:53:33;;;;;;;10.95;10.05;;;;;;;19.43;59.16;95255.00;5036110;28;20205;-87
2021/09/19 08:56:04;;;;;;;12.00;11.00;;;;;;;18.80;61.16;95262.13;5052623;28;20202;-86
2021/09/19 08:58:31;;;;;;;12.27;11.18;;;;;;;18.22;63.16;95252.72;5051311;28;20201;-87
2021/09/19 09:01:00;;;;;;;12.80;11.70;;;;;;;18.02;64.07;95252.31;5050878;28;20197;-86
2021/09/19 09:03:29;;;;;;;13.25;12.15;;;;;;;17.88;64.66;95251.78;5050044;28;20205;-86
2021/09/19 09:05:57;;;;;;;12.98;11.82;;;;;;;17.81;65.38;95255.53;5050048;28;20669;-87
2021/09/19 09:08:25;;;;;;;13.38;12.18;;;;;;;17.95;65.25;95257.63;5050194;28;20202;-87
2021/09/19 09:10:53;;;;;;;14.15;12.95;;;;;;;17.83;65.84;95261.31;5050257;28;20231;-86
2021/09/19 09:13:22;;;;;;;15.60;14.20;;;;;;;17.57;66.87;95262.53;5050255;28;20201;-86
2021/09/19 09:15:51;;;;;;;15.48;14.02;;;;;;;17.33;67.62;95261.75;5049857;28;20812;-86
2021/09/19 09:18:31;;;;;;;15.45;13.98;;;;;;;17.31;68.68;95265.63;5050285;28;20218;-86
2021/09/19 09:21:02;;;;;;;16.02;14.60;;;;;;;17.42;69.06;95263.00;5050285;28;20209;-86
2021/09/19 09:23:32;;;;;;;14.63;13.35;;;;;;;17.81;67.63;95256.31;5050060;28;20223;-86
2021/09/19 09:26:27;;;;;;;14.90;13.52;;;;;;;18.19;65.71;95257.59;5049667;28;20320;-86
2021/09/19 09:28:59;;;;;;;13.38;12.27;;;;;;;18.70;65.65;95256.72;5049928;28;20216;-87
2021/09/19 09:31:32;;;;;;;14.73;13.20;;;;;;;19.16;63.99;95253.03;5050228;28;20216;-86
2021/09/19 09:34:10;;;;;;;14.93;13.57;;;;;;;19.58;62.22;95263.06;5050743;28;20450;-86
2021/09/19 09:36:40;;;;;;;14.05;12.57;;;;;;;19.91;61.85;95252.53;5050548;28;20232;-87
2021/09/19 09:39:29;;;;;;;15.27;13.77;;;;;;;19.68;61.69;95257.97;5050488;28;20703;-86
2021/09/19 09:41:58;;;;;;;15.77;14.07;;;;;;;19.55;62.46;95258.31;5049604;28;20600;-87
2021/09/19 09:44:37;;;;;;;15.30;13.90;;;;;;;19.47;62.70;95258.69;5050019;28;20212;-86
2021/09/19 09:47:05;;;;;;;15.15;13.75;;;;;;;19.52;62.66;95256.97;5049974;28;20221;-87
2021/09/19 09:49:44;;;;;;;14.43;13.02;;;;;;;19.70;62.17;95257.75;5050016;28;20213;-86
2021/09/19 09:52:12;;;;;;;13.90;12.70;;;;;;;19.97;61.97;95258.63;5048731;28;20197;-87
2021/09/19 09:54:50;;;;;;;15.07;13.68;;;;;;;19.98;61.47;95258.38;5049477;28;20221;-86
2021/09/19 09:57:46;;;;;;;16.02;14.63;;;;;;;19.88;61.20;95249.63;5049798;28;20225;-86
2021/09/19 10:00:20;;;;;;;16.35;14.85;;;;;;;19.79;61.98;95251.88;5049965;28;20657;-87
2021/09/19 10:02:49;;;;;;;15.18;13.88;;;;;;;19.86;61.56;95243.84;5049877;28;20201;-87
2021/09/19 10:05:18;;;;;;;14.75;13.40;;;;;;;20.11;61.42;95243.34;5050265;28;20657;-86
2021/09/19 10:07:48;;;;;;;14.55;13.30;;;;;;;20.18;61.15;95239.53;5049615;28;20723;-86
2021/09/19 10:10:28;;;;;;;14.70;13.30;;;;;;;20.02;60.89;95237.75;5049965;28;20225;-87
2021/09/19 10:12:56;;;;;;;27.67;25.00;;;;;;;19.91;62.13;95239.47;5049995;28;20279;-87
2021/09/19 10:15:25;;;;;;;24.85;22.58;;;;;;;20.14;61.90;95238.44;5051086;28;20197;-87
2021/09/19 10:17:52;;;;;;;13.80;12.27;;;;;;;20.38;61.00;95235.59;5053866;28;20225;-87
2021/09/19 10:20:21;;;;;;;12.23;11.02;;;;;;;20.55;60.30;95234.47;5053769;28;20213;-87
2021/09/19 10:22:52;;;;;;;11.32;10.40;;;;;;;20.69;60.38;95233.00;5053740;28;20557;-87
2021/09/19 10:25:38;;;;;;;11.45;10.45;;;;;;;20.63;60.49;95225.34;5053386;28;20197;-87
2021/09/19 10:28:19;;;;;;;10.23;9.43;;;;;;;20.58;59.97;95228.75;5087159;22;20315;-88
2021/09/19 10:31:23;;;;;;;10.38;9.43;;;;;;;20.51;59.40;95224.72;5072661;28;20708;-86
2021/09/19 10:33:52;;;;;;;9.85;9.05;;;;;;;20.14;60.65;95222.75;5073190;28;20204;-86
2021/09/19 10:36:29;;;;;;;9.63;8.82;;;;;;;20.31;60.32;95225.28;5072699;28;20204;-87
2021/09/19 10:39:28;;;;;;;10.43;9.52;;;;;;;20.23;59.96;95226.50;5052791;28;20780;-87
2021/09/19 10:42:13;;;;;;;8.75;8.05;;;;;;;20.13;60.79;95223.78;5041009;28;20229;-86
2021/09/19 10:45:07;;;;;;;9.43;8.63;;;;;;;19.99;61.55;95220.75;5017674;28;20240;-86
2021/09/19 10:47:39;;;;;;;10.63;9.73;;;;;;;19.76;60.61;95236.69;5032638;28;20261;-87
2021/09/19 10:50:24;;;;;;;9.68;8.77;;;;;;;19.79;60.69;95219.72;5032803;28;20230;-86
2021/09/19 10:52:53;;;;;;;9.25;8.35;;;;;;;20.07;62.10;95229.97;5032799;28;20210;-87
2021/09/19 10:55:29;;;;;;;7.80;7.10;;;;;;;20.41;61.00;95225.41;5032464;28;20747;-87
2021/09/19 10:58:04;;;;;;;9.38;8.57;;;;;;;20.17;59.43;95226.72;5022235;28;20226;-87
2021/09/19 11:00:32;;;;;;;9.23;8.45;;;;;;;19.79;59.14;95230.97;5013050;28;20276;-87
2021/09/19 11:03:28;;;;;;;10.38;9.48;;;;;;;19.41;61.44;95223.13;5013100;28;20250;-88
2021/09/19 11:05:54;;;;;;;8.50;7.75;;;;;;;19.33;62.88;95209.44;5015694;28;20209;-87
2021/09/19 11:08:40;;;;;;;8.35;7.65;;;;;;;19.51;62.95;95218.06;5032148;28;20653;-87
2021/09/19 11:11:25;;;;;;;8.63;7.93;;;;;;;19.86;62.02;95213.28;5032412;28;20225;-87
2021/09/19 11:14:02;;;;;;;8.57;7.85;;;;;;;19.92;59.92;95204.47;5032280;28;20205;-87
2021/09/19 11:16:38;;;;;;;8.10;7.43;;;;;;;19.90;60.00;95211.75;5012502;28;20218;-86
2021/09/19 11:19:09;;;;;;;7.85;7.25;;;;;;;20.02;58.70;95206.41;5012645;28;20210;-87
2021/09/19 11:21:43;;;;;;;7.55;6.93;;;;;;;20.13;58.09;95217.75;5012597;28;20290;-87
2021/09/19 11:24:12;;;;;;;8.02;7.32;;;;;;;20.13;58.08;95210.72;5012200;28;20203;-88
2021/09/19 11:26:41;;;;;;;7.13;6.00;;;;;;;20.14;57.18;95214.91;5011967;28;20207;-86
2021/09/19 11:29:09;;;;;;;6.40;5.90;;;;;;;20.21;57.03;95215.50;5012058;28;20613;-87
2021/09/19 11:31:37;;;;;;;8.52;7.82;;;;;;;20.21;56.73;95220.72;5012244;28;20231;-87
2021/09/19 11:34:07;;;;;;;6.25;5.75;;;;;;;20.46;57.23;95217.63;5011828;28;20679;-88
2021/09/19 11:36:35;;;;;;;6.30;5.80;;;;;;;20.38;57.30;95220.69;5020563;28;20293;-87
2021/09/19 11:39:02;;;;;;;6.40;5.80;;;;;;;20.41;57.53;95225.41;5032121;28;20256;-86
2021/09/19 11:41:28;;;;;;;6.53;5.90;;;;;;;20.58;56.25;95225.34;5031627;28;20875;-87
2021/09/19 11:43:56;;;;;;;6.28;5.78;;;;;;;20.62;55.49;95223.78;5031706;28;20210;-87
2021/09/19 11:46:25;;;;;;;6.30;5.80;;;;;;;20.51;56.05;95224.72;5032013;28;20336;-87
2021/09/19 11:48:52;;;;;;;5.63;5.20;;;;;;;20.75;56.45;95226.00;5031729;28;20645;-87
2021/09/19 11:51:21;;;;;;;5.90;5.40;;;;;;;21.08;55.87;95226.78;5031381;28;20233;-86
2021/09/19 11:53:49;;;;;;;5.20;4.78;;;;;;;21.31;55.34;95224.63;5031370;28;20201;-86
2021/09/19 11:56:16;;;;;;;5.15;4.75;;;;;;;21.55;53.81;95229.50;5031140;28;20331;-87
2021/09/19 11:58:43;;;;;;;5.05;4.65;;;;;;;21.80;54.12;95221.75;5031320;28;20229;-87
2021/09/19 12:01:09;;;;;;;5.95;5.50;;;;;;;21.59;52.47;95222.69;5031462;28;20198;-86
2021/09/19 12:03:36;;;;;;;4.95;4.55;;;;;;;21.35;54.48;95225.72;5031455;28;20248;-86
2021/09/19 12:06:03;;;;;;;5.50;4.70;;;;;;;21.08;55.86;95227.56;5031063;28;20641;-88
2021/09/19 12:08:34;;;;;;;6.25;5.03;;;;;;;20.95;55.76;95225.38;5031016;28;20747;-86
2021/09/19 12:11:01;;;;;;;4.97;4.60;;;;;;;20.82;57.18;95231.00;5030863;28;20258;-88
2021/09/19 12:13:29;;;;;;;21.48;19.48;;;;;;;20.60;57.30;95231.88;5031063;28;20623;-87
2021/09/19 12:16:03;;;;;;;10.80;9.90;;;;;;;20.51;57.58;95228.13;5030868;28;20561;-86